Flight Track Log - Related Links

Times and Time Zones

All times are in EDT time to prevent confusion due to time zone crossing. See the C-GMNJ flight status page for this flight to view local times or setup timezone preferences in your user account.

Time Position Orientation Groundspeed Altitude Reporting Facility
EDT Latitude Longitude Course Direction KTS MPH feet Rate Location/Type
Fri 03:19:40 PM 42.0500 -71.3000 272° West 154 177 1,900  Level KA90
Fri 03:20:16 PM 42.0500 -71.3167 270° West 151 174 2,300 309 Climbing KA90
Fri 03:21:17 PM 42.0833 -71.3667 312° West 171 197 2,400 248 Climbing KA90
Fri 03:22:17 PM 42.1333 -71.4000 334° Northwest 156 180 2,800 371 Climbing KA90
Fri 03:22:54 PM 42.1375 -71.4267 282° West 158 182 3,000 545 Climbing Boston Center
Fri 03:23:12 PM 42.1439 -71.4433 297° West 159 183 3,300 701 Climbing Boston Center
Fri 03:24:11 PM 42.1589 -71.4933 292° West 152 175 3,900 650 Climbing Boston Center
Fri 03:25:00 PM 42.0997 -71.5390 272° West  Level Estimated
Fri 03:25:12 PM 42.1781 -71.5464 296° West 154 177 4,600  Level Boston Center
Fri 03:26:13 PM 42.1908 -71.5967 289° West 138 159 5,300 677 Climbing Boston Center
Fri 03:27:16 PM 42.2081 -71.6414 297° West 141 162 6,000 677 Climbing Boston Center
Fri 03:28:17 PM 42.2269 -71.6944 296° West 141 162 6,700 645 Climbing Boston Center
Fri 03:29:17 PM 42.2439 -71.7417 296° West 140 161 7,300 600 Climbing Boston Center
Fri 03:30:17 PM 42.2569 -71.7922 289° West 139 160 7,900 417 Climbing Boston Center
Fri 03:31:12 PM 42.2675 -71.8397 287° West 163 188 8,100 98 Climbing Boston Center
Fri 03:32:19 PM 42.2678 -71.9097 270° West 175 201 8,100  Level Boston Center
Fri 03:33:20 PM 42.2703 -71.9800 273° West 179 206 8,100  Level Boston Center
Fri 03:34:21 PM 42.2706 -72.0472 270° West 172 198 8,100  Level Boston Center
Fri 03:35:16 PM 42.2728 -72.1033 273° West 167 192 8,100  Level Boston Center
Fri 03:36:16 PM 42.2731 -72.1681 270° West 166 191 8,100  Level Boston Center
Fri 03:37:17 PM 42.2753 -72.2297 273° West 163 188 8,100  Level Boston Center
Fri 03:38:18 PM 42.2772 -72.2886 273° West 163 188 8,100  Level Boston Center
Fri 03:39:12 PM 42.2775 -72.3475 270° West 162 186 8,100  Level Boston Center
Fri 03:40:13 PM 42.2775 -72.4036 270° West 162 186 8,100  Level Boston Center
Fri 03:41:13 PM 42.2794 -72.4681 272° West 163 188 8,100  Level Boston Center
Fri 03:42:14 PM 42.2794 -72.5300 270° West 162 186 8,100  Level Boston Center
Fri 03:43:17 PM 42.2814 -72.5917 272° West 163 188 8,100  Level Boston Center
Fri 03:44:23 PM 42.2836 -72.6589 273° West 164 189 8,100  Level Boston Center
Fri 03:45:36 PM 42.2875 -72.7347 274° West 165 190 8,100  Level Boston Center
Fri 03:46:36 PM 42.2872 -72.7964 270° West 163 188 8,100  Level Boston Center
Fri 03:47:37 PM 42.2892 -72.8583 272° West 164 189 8,100  Level Boston Center
Fri 03:48:44 PM 42.3036 -72.9231 287° West 163 188 8,100 -47 Level Boston Center
Fri 03:49:44 PM 42.3303 -72.9708 307° West 162 186 8,000  Descending Boston Center
Fri 03:50:45 PM 42.3531 -73.0217 301° West 161 185 8,100 51 Climbing Boston Center
Fri 03:51:42 PM 42.3758 -73.0639 306° West 158 182 8,100  Level Boston Center
Fri 03:52:43 PM 42.4025 -73.1150 305° West 159 183 8,100  Level Boston Center
Fri 03:53:43 PM 42.4272 -73.1658 303° West 161 185 8,100  Level Boston Center
Fri 03:54:43 PM 42.4539 -73.2167 305° West 163 188 8,100  Level Boston Center
Fri 03:55:44 PM 42.4786 -73.2706 302° West 162 186 8,100 -47 Level Boston Center
Fri 03:56:51 PM 42.5075 -73.3217 307° West 162 186 8,000  Descending Boston Center
Fri 03:57:51 PM 42.5319 -73.3728 303° West 161 185 8,100 50 Climbing Boston Center
Fri 03:58:52 PM 42.5544 -73.4236 301° West 158 182 8,100  Level Boston Center
Fri 03:59:46 PM 42.5792 -73.4692 306° West 158 182 8,100  Level Boston Center
Fri 04:00:47 PM 42.6036 -73.5175 305° West 156 180 8,100  Level Boston Center
Fri 04:01:48 PM 42.6303 -73.5689 305° West 155 178 8,100  Level Boston Center
Fri 04:02:49 PM 42.6528 -73.6172 302° West 155 178 8,100  Level Boston Center
Fri 04:03:50 PM 42.6794 -73.6658 307° West 157 181 8,100  Level Boston Center
Fri 04:04:51 PM 42.7017 -73.7172 300° West 159 183 8,100  Level Boston Center
Fri 04:05:51 PM 42.7261 -73.7656 305° West 158 182 8,100  Level Boston Center
Fri 04:06:52 PM 42.7486 -73.8086 305° West 159 183 8,100 -49 Level Boston Center
Fri 04:07:53 PM 42.7622 -73.8767 285° West 170 196 8,000 -49 Descending Boston Center
Fri 04:08:54 PM 42.7742 -73.9364 285° West 162 186 8,000 50 Level Boston Center
Fri 04:09:54 PM 42.7878 -73.9989 287° West 164 189 8,100 50 Climbing Boston Center
Fri 04:10:54 PM 42.8014 -74.0617 286° West 167 192 8,100 -50 Level Boston Center
Fri 04:11:55 PM 42.8131 -74.1214 285° West 167 192 8,000 -50 Descending Boston Center
Fri 04:12:54 PM 42.8267 -74.1839 287° West 166 191 8,000 51 Level Boston Center
Fri 04:13:52 PM 42.8383 -74.2381 286° West 164 189 8,100 46 Climbing Boston Center
Fri 04:15:05 PM 42.8519 -74.3122 284° West 163 188 8,100 -45 Level Boston Center
Fri 04:16:05 PM 42.8675 -74.3750 289° West 164 189 8,000 -47 Descending Boston Center
Fri 04:17:12 PM 42.8811 -74.4378 287° West 164 189 8,000  Level Boston Center
Fri 04:18:12 PM 42.8925 -74.4947 285° West 164 189 8,000  Level Boston Center
Fri 04:19:14 PM 42.9058 -74.5603 286° West 164 189 8,000  Level Boston Center
Fri 04:20:15 PM 42.9172 -74.6203 285° West 165 190 8,000 49 Level Boston Center
Fri 04:21:16 PM 42.9306 -74.6803 287° West 166 191 8,100 50 Climbing Boston Center
Fri 04:22:16 PM 42.9400 -74.7375 283° West 163 188 8,100 -52 Level Boston Center
Fri 04:23:11 PM 42.9533 -74.7947 288° West 164 189 8,000 -49 Descending Boston Center
Fri 04:24:18 PM 42.9644 -74.8603 283° West 164 189 8,000  Level Boston Center
Fri 04:25:18 PM 42.9778 -74.9206 287° West 163 188 8,000  Level Boston Center
Fri 04:26:01 PM 42.9872 -74.9633 287° West 164 189 8,000 58 Level Boston Center
Fri 04:27:01 PM 42.9983 -75.0264 284° West 169 194 8,100  Climbing Boston Center
Fri 04:28:01 PM 43.0136 -75.0839 290° West 165 190 8,000 -50 Descending Boston Center
Fri 04:29:02 PM 43.0228 -75.1467 281° West 170 196 8,000 50 Level Boston Center
Fri 04:30:02 PM 43.0339 -75.2042 285° West 166 191 8,100  Climbing Boston Center
Fri 04:31:03 PM 43.0406 -75.2697 278° West 163 188 8,000 -47 Descending Boston Center
Fri 04:32:09 PM 43.0492 -75.3383 280° West 165 190 8,000  Level Boston Center
Fri 04:33:10 PM 43.0581 -75.4011 281° West 167 192 8,000  Level Boston Center
Fri 04:35:14 PM 43.0733 -75.5272 279° West 168 193 8,000  Level Boston Center
Fri 04:36:15 PM 43.0819 -75.5931 280° West 167 192 8,000 50 Level Boston Center
Fri 04:37:15 PM 43.0908 -75.6558 281° West 168 193 8,100  Climbing Boston Center
Fri 04:38:15 PM 43.0953 -75.7158 276° West 169 194 8,000 -50 Descending Boston Center
Fri 04:39:16 PM 43.1039 -75.7817 280° West 166 191 8,000  Level Boston Center
Fri 04:41:12 PM 43.1192 -75.8964 280° West 164 189 8,000  Level Boston Center
Fri 04:42:04 PM 43.1278 -75.9567 281° West 167 192 8,000  Level Boston Center
Fri 04:43:04 PM 43.1342 -76.0167 278° West 165 190 8,000  Level Boston Center
Fri 04:43:59 PM 43.1428 -76.0714 282° West 164 189 8,000  Level Boston Center
Fri 04:45:00 PM 43.1492 -76.1344 278° West 162 186 8,000 49 Level Boston Center
Fri 04:46:01 PM 43.1575 -76.1975 280° West 163 188 8,100  Climbing Boston Center
Fri 04:47:01 PM 43.1575 -76.2603 270° West 167 192 8,000 -50 Descending Boston Center
Fri 04:48:02 PM 43.1575 -76.3228 270° West 165 190 8,000  Level Boston Center
Fri 04:49:02 PM 43.1553 -76.3853 267° West 165 190 8,000  Level Boston Center
Fri 04:49:52 PM 43.1547 -76.4264 269° West 164 189 8,000  Level Cleveland Center
Fri 04:50:54 PM 43.1536 -76.4897 269° West 165 190 8,000 48 Level Cleveland Center
Fri 04:51:56 PM 43.1517 -76.5508 268° West 164 189 8,100 48 Climbing Cleveland Center
Fri 04:52:58 PM 43.1506 -76.6258 269° West 164 189 8,100 -48 Level Cleveland Center
Fri 04:54:00 PM 43.1494 -76.6864 269° West 162 186 8,000 -48 Descending Cleveland Center
Fri 04:55:02 PM 43.1453 -76.7481 265° West 163 188 8,000  Level Cleveland Center
Fri 04:56:04 PM 43.1431 -76.8064 267° West 159 183 8,000 44 Level Cleveland Center
Fri 04:57:19 PM 43.1417 -76.8786 269° West 159 183 8,100  Climbing Cleveland Center
Fri 04:58:21 PM 43.1389 -76.9503 267° West 159 183 8,000 -67 Descending Cleveland Center
Fri 04:58:49 PM 43.1394 -76.9806 271° West 158 182 8,000  Level Cleveland Center
Fri 04:59:24 PM 43.1372 -77.0097 264° West 159 183 8,000  Level Cleveland Center
Fri 04:59:56 PM 43.1369 -77.0467 269° West 158 182 8,000  Level Cleveland Center
Fri 05:00:26 PM 43.1356 -77.0700 265° West 160 184 8,000 98 Level Cleveland Center
Fri 05:00:57 PM 43.1369 -77.1075 273° West 158 182 8,100  Climbing Cleveland Center
Fri 05:01:57 PM 43.1347 -77.1706 267° West 159 183 8,000 -65 Descending Cleveland Center
Fri 05:02:30 PM 43.1317 -77.1900 258° West 160 184 8,000  Level Cleveland Center
Fri 05:02:58 PM 43.1306 -77.2303 268° West 159 183 8,000  Level Cleveland Center
Fri 05:03:32 PM 43.1294 -77.2619 267° West 159 183 8,000  Level Cleveland Center
Fri 05:03:58 PM 43.1292 -77.2878 269° West 159 183 8,000  Level Cleveland Center
Fri 05:04:34 PM 43.1272 -77.3219 266° West 160 184 8,000 98 Level Cleveland Center
Fri 05:04:59 PM 43.1292 -77.3486 276° West 158 182 8,100  Climbing Cleveland Center
Fri 05:05:36 PM 43.1258 -77.3814 262° West 158 182 8,000 -98 Descending Cleveland Center
Fri 05:06:00 PM 43.1269 -77.4089 273° West 157 181 8,000  Level Cleveland Center
Fri 05:06:38 PM 43.1236 -77.4392 261° West 156 180 8,000  Level Cleveland Center
Fri 05:06:54 PM 43.1236 -77.4631 270° West 155 178 8,000  Level Cleveland Center
Fri 05:07:40 PM 43.1219 -77.4983 266° West 156 180 8,000  Level Cleveland Center
Fri 05:07:55 PM 43.1219 -77.5206 270° West 154 177 8,000  Level Cleveland Center
Fri 05:08:42 PM 43.1203 -77.5567 266° West 156 180 8,000  Level Cleveland Center
Fri 05:08:55 PM 43.1197 -77.5808 268° West 154 177 8,000  Level Cleveland Center
Fri 05:09:44 PM 43.1175 -77.6264 266° West 154 177 8,000  Level Cleveland Center
Fri 05:09:56 PM 43.1181 -77.6383 274° West 153 176 8,000 97 Level Cleveland Center
Fri 05:10:46 PM 43.1158 -77.6844 266° West 154 177 8,100  Climbing Cleveland Center
Fri 05:10:57 PM 43.1200 -77.6997 290° West 156 180 8,000 -95 Descending Cleveland Center
Fri 05:11:49 PM 43.1242 -77.7408 278° West 154 177 8,000  Level Cleveland Center
Fri 05:11:57 PM 43.1267 -77.7564 282° West 151 174 8,000 97 Level Cleveland Center
Fri 05:12:51 PM 43.1306 -77.7989 277° West 154 177 8,100  Climbing Cleveland Center
Fri 05:12:58 PM 43.1333 -77.8133 285° West 151 174 8,000 -97 Descending Cleveland Center
Fri 05:13:53 PM 43.1372 -77.8553 277° West 152 175 8,000 98 Level Cleveland Center
Fri 05:13:59 PM 43.1400 -77.8703 284° West 153 176 8,100 97 Climbing Cleveland Center
Fri 05:14:55 PM 43.1444 -77.9247 276° West 153 176 8,100 -51 Level Cleveland Center
Fri 05:15:57 PM 43.1347 -77.9808 257° West 154 177 8,000 -48 Descending Cleveland Center
Fri 05:16:59 PM 43.1283 -78.0394 262° West 156 180 8,000  Level Cleveland Center
Fri 05:18:01 PM 43.1222 -78.0964 262° West 154 177 8,000  Level Cleveland Center
Fri 05:19:03 PM 43.1158 -78.1558 262° West 156 180 8,000  Level Cleveland Center
Fri 05:20:05 PM 43.1069 -78.2244 260° West 154 177 8,000  Level Cleveland Center
Fri 05:21:07 PM 43.0992 -78.2831 260° West 155 178 8,000  Level Cleveland Center
Fri 05:22:09 PM 43.1039 -78.3408 276° West 161 185 8,000  Level Cleveland Center
Fri 05:23:11 PM 43.1369 -78.3700 327° Northwest 145 167 8,000  Level Cleveland Center
Fri 05:24:13 PM 43.1764 -78.3875 342° North 147 169 8,000  Level Cleveland Center
Fri 05:25:15 PM 43.2133 -78.4147 332° Northwest 150 173 8,000  Level Cleveland Center
Fri 05:26:17 PM 43.2564 -78.4453 333° Northwest 151 174 8,000  Level Cleveland Center
Fri 05:27:20 PM 43.2950 -78.4706 335° Northwest 147 169 8,000  Level Cleveland Center
Fri 05:28:22 PM 43.3339 -78.4969 334° Northwest 149 171 8,000  Level Cleveland Center
Fri 05:29:24 PM 43.3689 -78.5192 335° Northwest 145 167 8,000  Level Cleveland Center
Fri 05:29:55 PM 43.3833 -78.5167 North 140 161 8,000  Level Toronto Center
Fri 05:30:55 PM 43.4333 -78.5333 346° North 150 173 8,000  Level Toronto Center
Fri 05:31:55 PM 43.4667 -78.5500 340° North 150 173 8,000  Level Toronto Center
Fri 05:32:55 PM 43.5000 -78.6000 313° West 140 161 8,000 -50 Level Toronto Center
Fri 05:33:55 PM 43.5333 -78.6167 340° North 150 173 7,900 -300 Descending Toronto Center
Fri 05:34:55 PM 43.5667 -78.6500 324° Northwest 150 173 7,400 -500 Descending Toronto Center
Fri 05:35:55 PM 43.6000 -78.6667 340° North 150 173 6,900 -500 Descending Toronto Center
Fri 05:36:55 PM 43.6333 -78.7167 313° West 150 173 6,400 -550 Descending Toronto Center
Fri 05:37:55 PM 43.6500 -78.7500 305° West 150 173 5,800 -600 Descending Toronto Center
Fri 05:38:55 PM 43.6833 -78.8000 313° West 140 161 5,200 -694 Descending Toronto Center
Fri 05:39:56 PM 43.7167 -78.8500 313° West 150 173 4,400 -744 Descending Toronto Center
Fri 05:40:56 PM 43.7333 -78.9000 295° West 150 173 3,700 -650 Descending Toronto Center
Fri 05:41:56 PM 43.7667 -78.9333 324° Northwest 150 173 3,100 -350 Descending Toronto Center
Fri 05:42:56 PM 43.7833 -78.9667 305° West 140 161 3,000 -50 Descending Toronto Center
Fri 05:43:55 PM 43.8167 -79.0167 313° West 120 138 3,000  Level Toronto Center
Fri 05:44:55 PM 43.8333 -79.0333 324° Northwest 120 138 3,000  Level Toronto Center
Fri 05:45:55 PM 43.8500 -79.0833 295° West 120 138 3,000  Level Toronto Center
Fri 05:46:55 PM 43.8667 -79.1000 324° Northwest 120 138 3,000  Level Toronto Center
Fri 05:47:55 PM 43.9000 -79.1500 313° West 110 127 3,000 -233 Level Toronto Center
Fri 05:49:55 PM 43.9500 -79.1500 360° North 110 127 2,300 -233 Descending Toronto Center
Fri 05:50:55 PM 43.9667 -79.1167 55° Northeast 90 104 2,300  Level Toronto Center
Fri 05:51:55 PM 43.9833 -79.1000 36° Northeast 80 92 2,300  Level Toronto Center
Fri 05:52:55 PM 43.9667 -79.0833 144° Southeast 100 115 2,300  Level Toronto Center
Fri 05:53:55 PM 43.9500 -79.0333 115° Southeast 90 104 2,300  Level Toronto Center
Fri 05:54:55 PM 43.9500 -79.0000 90° East 90 104 2,300 -150 Level Toronto Center
Fri 05:55:55 PM 43.9333 -78.9833 144° Southeast 80 92 2,000 -397 Descending Toronto Center
Fri 05:56:56 PM 43.9333 -78.9333 90° East 80 92 1,500 -492 Descending Toronto Center

Login

Don't have an account? Register now (free) for customized features, flight alerts, and more!